createdAt,value
2018-05-06T00:02:09.582Z,4.70
2018-05-06T00:04:37.083Z,5.17
2018-05-06T00:07:04.576Z,4.50
2018-05-06T00:09:32.871Z,4.40
2018-05-06T00:12:01.129Z,4.67
2018-05-06T00:14:28.626Z,4.13
2018-05-06T00:16:56.925Z,4.60
2018-05-06T00:19:24.426Z,4.60
2018-05-06T00:21:51.911Z,4.50
2018-05-06T00:24:19.442Z,4.23
2018-05-06T00:26:46.941Z,4.23
2018-05-06T00:29:14.422Z,4.40
2018-05-06T00:31:41.938Z,5.00
2018-05-06T00:34:10.187Z,4.70
2018-05-06T00:36:37.670Z,4.40
2018-05-06T00:39:05.219Z,4.23
2018-05-06T00:41:32.710Z,4.17
2018-05-06T00:44:00.212Z,3.70
2018-05-06T00:46:27.790Z,3.87
2018-05-06T00:48:55.243Z,4.10
2018-05-06T00:51:23.498Z,4.50
2018-05-06T00:53:51.024Z,4.40
2018-05-06T00:56:18.535Z,4.07
2018-05-06T00:58:46.034Z,3.77
2018-05-06T01:01:14.331Z,4.83
2018-05-06T01:03:42.585Z,4.53
2018-05-06T01:06:10.078Z,4.87
2018-05-06T01:08:37.600Z,3.80
2018-05-06T01:11:05.085Z,4.00
2018-05-06T01:13:32.623Z,4.17
2018-05-06T01:16:00.104Z,4.20
2018-05-06T01:18:27.592Z,4.10
2018-05-06T01:20:55.108Z,4.40
2018-05-06T01:23:23.383Z,4.13
2018-05-06T01:25:50.907Z,4.87
2018-05-06T01:28:18.420Z,4.90
2018-05-06T01:30:45.909Z,5.20
2018-05-06T01:33:14.303Z,5.00
2018-05-06T01:35:42.576Z,4.90
2018-05-06T01:38:10.071Z,6.37
2018-05-06T01:40:38.347Z,4.10
2018-05-06T01:43:06.608Z,4.67
2018-05-06T01:45:34.091Z,3.77
2018-05-06T01:48:01.611Z,3.70
2018-05-06T01:50:29.102Z,4.10
2018-05-06T01:52:56.598Z,4.20
2018-05-06T01:55:24.175Z,3.80
2018-05-06T01:57:51.664Z,4.27
2018-05-06T02:00:19.915Z,5.20
2018-05-06T02:02:47.441Z,4.63
2018-05-06T02:05:14.935Z,3.97
2018-05-06T02:07:42.430Z,3.97
2018-05-06T02:10:09.955Z,4.17
2018-05-06T02:12:37.459Z,3.60
2018-05-06T02:15:04.974Z,3.57
2018-05-06T02:17:33.223Z,4.00
2018-05-06T02:20:00.707Z,3.60
2018-05-06T02:22:28.236Z,3.60
2018-05-06T02:24:55.717Z,4.30
2018-05-06T02:27:23.221Z,4.00
2018-05-06T02:29:50.728Z,3.83
2018-05-06T02:32:18.217Z,4.37
2018-05-06T02:34:45.732Z,4.20
2018-05-06T02:37:13.215Z,4.10
2018-05-06T02:39:40.709Z,3.70
2018-05-06T02:42:08.227Z,3.07
2018-05-06T02:44:35.706Z,4.27
2018-05-06T02:47:03.190Z,3.10
2018-05-06T02:49:30.716Z,3.40
2018-05-06T02:51:58.215Z,3.73
2018-05-06T02:54:25.708Z,4.03
2018-05-06T02:56:53.983Z,4.03
2018-05-06T02:59:21.483Z,3.20
2018-05-06T03:01:49.007Z,3.80
2018-05-06T03:04:16.488Z,3.30
2018-05-06T03:06:43.979Z,3.30
2018-05-06T03:09:11.509Z,4.43
2018-05-06T03:11:39.009Z,3.67
2018-05-06T03:14:06.510Z,3.77
2018-05-06T03:16:34.023Z,4.10
2018-05-06T03:19:01.510Z,3.80
2018-05-06T03:21:28.993Z,3.20
2018-05-06T03:23:56.505Z,3.63
2018-05-06T03:26:23.992Z,3.93
2018-05-06T03:28:51.520Z,3.50
2018-05-06T03:31:19.786Z,3.80
2018-05-06T03:33:47.287Z,3.70
2018-05-06T03:36:15.567Z,3.67
2018-05-06T03:38:43.809Z,3.70
2018-05-06T03:41:11.286Z,4.07
2018-05-06T03:43:38.807Z,3.63
2018-05-06T03:46:06.294Z,3.80
2018-05-06T03:48:33.782Z,3.60
2018-05-06T03:51:01.307Z,3.20
2018-05-06T03:53:29.567Z,3.73
2018-05-06T03:59:15.334Z,3.03
2018-05-06T04:01:47.468Z,3.30
2018-05-06T04:04:15.275Z,3.03
2018-05-06T04:06:42.766Z,3.60
2018-05-06T04:09:10.278Z,3.70
2018-05-06T04:11:37.763Z,3.07
2018-05-06T04:14:05.247Z,4.30
2018-05-06T04:16:32.773Z,3.10
2018-05-06T04:19:00.325Z,3.37
2018-05-06T04:21:27.822Z,3.57
2018-05-06T04:23:55.329Z,3.40
2018-05-06T04:26:22.815Z,3.77
2018-05-06T04:28:51.067Z,3.13
2018-05-06T04:31:18.574Z,3.23
2018-05-06T04:33:46.833Z,3.60
2018-05-06T04:36:14.309Z,3.47
2018-05-06T04:38:41.922Z,3.03
2018-05-06T04:41:09.412Z,3.20
2018-05-06T04:43:36.904Z,3.57
2018-05-06T04:46:04.414Z,3.20
2018-05-06T04:48:32.664Z,4.30
2018-05-06T04:51:00.151Z,3.90
2018-05-06T04:53:27.682Z,4.00
2018-05-06T04:55:55.175Z,3.50
2018-05-06T04:58:22.669Z,4.07
2018-05-06T05:00:50.274Z,3.43
2018-05-06T05:03:17.763Z,3.10
2018-05-06T05:05:45.259Z,4.00
2018-05-06T05:08:12.766Z,3.40
2018-05-06T05:10:41.023Z,3.70
2018-05-06T05:13:08.497Z,3.37
2018-05-06T05:15:36.111Z,2.90
2018-05-06T05:18:03.602Z,3.30
2018-05-06T05:20:31.096Z,3.73
2018-05-06T05:22:59.383Z,3.10
2018-05-06T05:25:26.874Z,3.60
2018-05-06T05:27:54.491Z,3.93
2018-05-06T05:30:21.975Z,3.50
2018-05-06T05:32:49.454Z,3.47
2018-05-06T05:35:16.985Z,3.30
2018-05-06T05:37:45.226Z,3.40
2018-05-06T05:40:12.711Z,3.57
2018-05-06T05:42:40.285Z,3.20
2018-05-06T05:45:07.730Z,3.10
2018-05-06T05:47:35.261Z,2.87
2018-05-06T05:50:02.736Z,2.90
2018-05-06T05:52:30.230Z,3.20
2018-05-06T05:54:57.753Z,2.90
2018-05-06T05:57:26.006Z,2.87
2018-05-06T05:59:54.532Z,3.20
2018-05-06T06:02:22.019Z,3.13
2018-05-06T06:04:50.260Z,2.90
2018-05-06T06:07:17.753Z,3.37
2018-05-06T06:09:45.341Z,3.53
2018-05-06T06:12:12.771Z,3.27
2018-05-06T06:14:40.253Z,3.40
2018-05-06T06:17:07.767Z,3.60
2018-05-06T06:19:35.263Z,2.97
2018-05-06T06:22:02.753Z,3.57
2018-05-06T06:24:30.282Z,2.90
2018-05-06T06:26:57.765Z,2.83
2018-05-06T06:29:25.250Z,2.80
2018-05-06T06:31:52.769Z,3.13
2018-05-06T06:34:21.050Z,2.90
2018-05-06T06:36:48.538Z,2.30
2018-05-06T06:39:16.945Z,2.77
2018-05-06T06:41:44.431Z,2.90
2018-05-06T06:44:11.922Z,2.63
2018-05-06T06:46:39.434Z,2.17
2018-05-06T06:49:07.699Z,2.40
2018-05-06T06:51:35.186Z,1.67
2018-05-06T06:54:03.475Z,2.47
2018-05-06T06:56:30.962Z,2.60
2018-05-06T06:58:59.204Z,2.13
2018-05-06T07:01:26.728Z,2.70
2018-05-06T07:03:54.210Z,2.17
2018-05-06T07:06:21.698Z,3.00
2018-05-06T07:08:49.213Z,2.40
2018-05-06T07:11:17.525Z,2.27
2018-05-06T07:13:44.964Z,2.60
2018-05-06T07:16:12.473Z,2.23
2018-05-06T07:18:39.983Z,2.23
2018-05-06T07:21:07.458Z,2.40
2018-05-06T07:23:34.970Z,2.60
2018-05-06T07:26:02.470Z,2.80
2018-05-06T07:28:29.994Z,2.60
2018-05-06T07:30:58.261Z,3.07
2018-05-06T07:33:25.748Z,2.60
2018-05-06T07:35:53.332Z,3.10
2018-05-06T07:38:20.751Z,3.00
2018-05-06T07:40:48.239Z,2.63
2018-05-06T07:43:15.751Z,2.60
2018-05-06T07:45:43.239Z,3.13
2018-05-06T07:48:10.721Z,2.80
2018-05-06T07:50:38.231Z,3.17
2018-05-06T07:53:05.731Z,2.97
2018-05-06T07:55:33.985Z,3.67
2018-05-06T07:58:01.514Z,3.33
2018-05-06T08:00:29.027Z,3.07
2018-05-06T08:02:56.583Z,3.03
2018-05-06T08:05:24.097Z,2.80
2018-05-06T08:07:51.607Z,3.17
2018-05-06T08:10:19.121Z,3.10
2018-05-06T08:12:46.620Z,3.43
2018-05-06T08:15:14.103Z,3.10
2018-05-06T08:17:41.723Z,3.30
2018-05-06T08:20:09.266Z,3.00
2018-05-06T08:22:36.751Z,3.47
2018-05-06T08:25:04.262Z,3.00
2018-05-06T08:27:32.811Z,4.73
2018-05-06T08:30:00.311Z,3.03
2018-05-06T08:32:28.686Z,3.10
2018-05-06T08:34:56.177Z,3.30
2018-05-06T08:37:23.676Z,3.10
2018-05-06T08:39:51.197Z,3.30
2018-05-06T08:42:18.733Z,3.37
2018-05-06T08:44:46.228Z,3.50
2018-05-06T08:47:15.751Z,2.90
2018-05-06T08:49:43.240Z,3.07
2018-05-06T08:52:10.735Z,3.00
2018-05-06T08:54:38.364Z,2.73
2018-05-06T08:57:05.898Z,3.37
2018-05-06T08:59:33.389Z,3.03
2018-05-06T09:02:00.920Z,2.97
2018-05-06T09:04:28.427Z,3.00
2018-05-06T09:06:55.905Z,3.23
2018-05-06T09:09:23.412Z,2.97
2018-05-06T09:11:51.669Z,2.47
2018-05-06T09:14:19.155Z,3.00
2018-05-06T09:16:46.692Z,2.60
2018-05-06T09:19:14.175Z,3.37
2018-05-06T09:21:41.664Z,2.50
2018-05-06T09:24:09.294Z,2.77
2018-05-06T09:26:36.774Z,2.70
2018-05-06T09:29:04.265Z,3.17
2018-05-06T09:31:31.782Z,2.80
2018-05-06T09:34:00.043Z,2.70
2018-05-06T09:36:27.534Z,2.90
2018-05-06T09:38:55.818Z,2.60
2018-05-06T09:41:24.063Z,2.97
2018-05-06T09:43:51.548Z,2.80
2018-05-06T09:46:19.051Z,3.30
2018-05-06T09:48:47.311Z,3.03
2018-05-06T09:51:14.809Z,2.87
2018-05-06T09:53:43.103Z,2.73
2018-05-06T09:56:11.360Z,2.47
2018-05-06T09:58:38.850Z,2.70
2018-05-06T10:01:06.375Z,2.87
2018-05-06T10:03:33.879Z,3.00
2018-05-06T10:06:01.366Z,2.50
2018-05-06T10:08:29.653Z,2.90
2018-05-06T10:10:57.906Z,2.63
2018-05-06T10:13:25.416Z,2.77
2018-05-06T10:15:53.732Z,2.70
2018-05-06T10:18:21.173Z,3.07
2018-05-06T10:20:49.455Z,3.10
2018-05-06T10:23:17.702Z,2.53
2018-05-06T10:25:45.179Z,2.90
2018-05-06T10:28:13.471Z,2.70
2018-05-06T10:30:41.653Z,2.90
2018-05-06T10:33:09.135Z,4.00
2018-05-06T10:35:36.650Z,3.27
2018-05-06T10:38:04.131Z,3.40
2018-05-06T10:40:31.615Z,2.80
2018-05-06T10:42:59.128Z,2.47
2018-05-06T10:45:27.382Z,2.57
2018-05-06T10:47:54.877Z,2.67
2018-05-06T10:50:22.579Z,2.63
2018-05-06T10:52:49.999Z,3.00
2018-05-06T10:55:17.488Z,3.30
2018-05-06T10:57:45.005Z,2.47
2018-05-06T11:00:12.486Z,2.50
2018-05-06T11:02:39.957Z,2.77
2018-05-06T11:05:07.467Z,2.97
2018-05-06T11:07:34.968Z,2.80
2018-05-06T11:10:03.206Z,2.87
2018-05-06T11:12:30.830Z,3.40
2018-05-06T11:14:59.080Z,2.63
2018-05-06T11:17:26.590Z,2.67
2018-05-06T11:19:54.872Z,2.37
2018-05-06T11:22:23.134Z,2.67
2018-05-06T11:24:50.625Z,2.27
2018-05-06T11:27:18.916Z,2.50
2018-05-06T11:29:46.422Z,2.30
2018-05-06T11:32:13.922Z,2.40
2018-05-06T11:34:41.455Z,2.50
2018-05-06T11:37:08.951Z,2.57
2018-05-06T11:39:36.433Z,2.30
2018-05-06T11:42:03.965Z,1.90
2018-05-06T11:44:31.477Z,2.47
2018-05-06T11:46:58.968Z,2.13
2018-05-06T11:49:26.502Z,1.70
2018-05-06T11:51:53.995Z,1.63
2018-05-06T11:54:21.494Z,2.17
2018-05-06T11:56:49.045Z,2.27
2018-05-06T11:59:16.534Z,2.13
2018-05-06T12:01:44.795Z,2.20
2018-05-06T12:04:12.297Z,1.90
2018-05-06T12:06:39.842Z,1.87
2018-05-06T12:09:07.336Z,2.17
2018-05-06T12:11:35.604Z,2.07
2018-05-06T12:14:03.113Z,2.00
2018-05-06T12:16:30.624Z,1.70
2018-05-06T12:18:58.331Z,1.90
2018-05-06T12:21:26.659Z,1.80
2018-05-06T12:23:54.246Z,2.00
2018-05-06T12:26:21.795Z,1.50
2018-05-06T12:28:49.302Z,1.67
2018-05-06T12:31:16.855Z,1.63
2018-05-06T12:33:44.459Z,1.57
2018-05-06T12:36:11.978Z,1.93
2018-05-06T12:38:39.514Z,1.87
2018-05-06T12:41:07.836Z,2.27
2018-05-06T12:43:35.368Z,1.90
2018-05-06T12:46:02.898Z,1.77
2018-05-06T12:48:30.450Z,1.70
2018-05-06T12:50:58.801Z,1.77
2018-05-06T12:53:50.096Z,1.90
2018-05-06T12:56:31.068Z,2.00
2018-05-06T13:01:54.384Z,4.70
2018-05-06T13:07:24.607Z,3.33
2018-05-06T13:10:01.764Z,1.80
2018-05-06T13:15:19.362Z,1.43
2018-05-06T13:17:53.374Z,1.90
2018-05-06T13:23:02.711Z,1.77
2018-05-06T13:28:28.341Z,1.90
2018-05-06T13:34:08.025Z,1.73
2018-05-06T13:36:36.311Z,1.73
2018-05-06T13:39:04.623Z,1.73
2018-05-06T13:41:32.147Z,1.60
2018-05-06T13:43:59.673Z,2.17
2018-05-06T13:46:27.211Z,1.50
2018-05-06T13:48:55.542Z,1.47
2018-05-06T13:51:23.215Z,1.90
2018-05-06T13:53:50.716Z,1.47
2018-05-06T13:56:18.244Z,2.23
2018-05-06T14:01:34.938Z,1.63
2018-05-06T14:04:14.378Z,1.30
2018-05-06T14:07:09.805Z,1.77
2018-05-06T14:09:49.716Z,1.60
2018-05-06T14:12:17.311Z,1.63
2018-05-06T14:14:45.573Z,1.37
2018-05-06T14:17:13.086Z,1.50
2018-05-06T14:19:40.578Z,1.53
2018-05-06T14:22:08.321Z,1.40
2018-05-06T14:24:36.621Z,1.50
2018-05-06T14:27:04.142Z,2.30
2018-05-06T14:29:31.644Z,2.33
2018-05-06T14:31:59.211Z,2.20
2018-05-06T14:34:27.486Z,1.70
2018-05-06T14:36:55.836Z,1.83
2018-05-06T14:39:23.321Z,1.67
2018-05-06T14:41:50.810Z,1.50
2018-05-06T14:44:18.448Z,1.77
2018-05-06T14:46:57.815Z,1.47
2018-05-06T14:49:25.457Z,1.63
2018-05-06T14:51:52.947Z,1.60
2018-05-06T14:54:20.451Z,1.60
2018-05-06T14:56:47.962Z,1.50
2018-05-06T14:59:15.448Z,1.70
2018-05-06T15:01:43.702Z,1.80
2018-05-06T15:04:12.081Z,1.50
2018-05-06T15:06:40.338Z,1.70
2018-05-06T15:09:07.818Z,1.80
2018-05-06T15:11:35.332Z,1.60
2018-05-06T15:14:02.831Z,1.60
2018-05-06T15:16:30.394Z,1.60
2018-05-06T15:18:57.884Z,1.80
2018-05-06T15:21:25.379Z,1.90
2018-05-06T15:23:52.893Z,1.80
2018-05-06T15:26:20.372Z,2.07
2018-05-06T15:28:47.899Z,1.87
2018-05-06T15:31:16.158Z,1.67
2018-05-06T15:33:43.662Z,2.40
2018-05-06T15:36:11.944Z,1.30
2018-05-06T15:38:39.442Z,2.07
2018-05-06T15:41:07.005Z,1.50
2018-05-06T15:43:34.501Z,2.40
2018-05-06T15:46:01.998Z,1.80
2018-05-06T15:48:29.486Z,2.00
2018-05-06T15:50:57.010Z,1.60
2018-05-06T15:53:24.504Z,1.40
2018-05-06T15:55:52.010Z,1.63
2018-05-06T15:58:20.301Z,1.63
2018-05-06T16:00:48.562Z,1.40
2018-05-06T16:03:27.844Z,1.43
2018-05-06T16:05:56.139Z,1.70
2018-05-06T16:08:24.410Z,2.20
2018-05-06T16:10:51.941Z,1.90
2018-05-06T16:13:19.422Z,1.13
2018-05-06T16:15:46.933Z,2.23
2018-05-06T16:18:15.220Z,1.80
2018-05-06T16:20:43.470Z,1.20
2018-05-06T16:23:10.958Z,1.60
2018-05-06T16:25:38.516Z,2.50
2018-05-06T16:28:05.994Z,2.70
2018-05-06T16:30:33.495Z,1.73
2018-05-06T16:33:01.780Z,1.83
2018-05-06T16:35:30.036Z,1.40
2018-05-06T16:37:57.709Z,1.83
2018-05-06T16:40:25.182Z,2.00
2018-05-06T16:42:52.670Z,1.97
2018-05-06T16:45:20.172Z,1.40
2018-05-06T16:47:47.727Z,1.30
2018-05-06T16:50:15.223Z,1.23
2018-05-06T16:52:42.828Z,1.53
2018-05-06T16:55:11.207Z,1.40
2018-05-06T16:57:38.897Z,2.00
2018-05-06T17:00:06.567Z,1.63
2018-05-06T17:02:34.249Z,1.50
2018-05-06T17:05:01.965Z,1.60
2018-05-06T17:07:29.594Z,1.60
2018-05-06T17:09:57.309Z,3.17
2018-05-06T17:12:25.801Z,2.07
2018-05-06T17:14:54.254Z,2.10
2018-05-06T17:17:21.874Z,4.90
2018-05-06T17:19:49.461Z,1.70
2018-05-06T17:22:17.061Z,1.77
2018-05-06T17:24:44.687Z,1.90
2018-05-06T17:27:12.230Z,1.80
2018-05-06T17:29:39.932Z,2.60
2018-05-06T17:32:07.508Z,2.17
2018-05-06T17:34:35.848Z,2.20
2018-05-06T17:37:05.079Z,2.10
2018-05-06T17:39:32.840Z,4.10
2018-05-06T17:42:00.450Z,2.30
2018-05-06T17:44:28.869Z,2.40
2018-05-06T17:46:56.641Z,1.80
2018-05-06T17:49:24.263Z,1.60
2018-05-06T17:51:53.093Z,1.60
2018-05-06T17:54:21.107Z,1.50
2018-05-06T17:56:48.777Z,1.90
2018-05-06T17:59:16.608Z,1.60
2018-05-06T18:01:44.189Z,1.90
2018-05-06T18:04:12.256Z,2.13
2018-05-06T18:06:40.688Z,1.90
2018-05-06T18:09:08.322Z,1.93
2018-05-06T18:11:36.091Z,1.77
2018-05-06T18:14:03.755Z,1.80
2018-05-06T18:16:31.349Z,1.80
2018-05-06T18:18:58.950Z,1.50
2018-05-06T18:21:27.331Z,2.23
2018-05-06T18:23:54.940Z,2.37
2018-05-06T18:26:22.458Z,1.50
2018-05-06T18:28:50.000Z,1.83
2018-05-06T18:31:17.527Z,2.40
2018-05-06T18:33:45.807Z,2.43
2018-05-06T18:36:14.098Z,2.27
2018-05-06T18:38:42.346Z,2.07
2018-05-06T18:41:09.843Z,2.00
2018-05-06T18:43:37.472Z,2.40
2018-05-06T18:46:04.965Z,2.30
2018-05-06T18:48:32.456Z,2.80
2018-05-06T18:50:59.976Z,2.67
2018-05-06T18:53:27.458Z,3.13
2018-05-06T18:55:54.975Z,3.10
2018-05-06T18:58:22.472Z,2.60
2018-05-06T19:00:49.971Z,2.40
2018-05-06T19:03:17.503Z,2.80
2018-05-06T19:05:45.012Z,2.67
2018-05-06T19:08:12.504Z,2.70
2018-05-06T19:10:40.030Z,2.50
2018-05-06T19:13:07.523Z,1.90
2018-05-06T19:15:35.005Z,2.87
2018-05-06T19:18:02.550Z,2.30
2018-05-06T19:20:30.030Z,2.27
2018-05-06T19:22:57.520Z,1.97
2018-05-06T19:25:25.146Z,2.13
2018-05-06T19:27:52.634Z,2.47
2018-05-06T19:30:20.147Z,2.20
2018-05-06T19:32:47.716Z,2.40
2018-05-06T19:35:15.202Z,2.37
2018-05-06T19:37:43.573Z,2.60
2018-05-06T19:40:11.042Z,2.30
2018-05-06T19:42:38.539Z,2.20
2018-05-06T19:45:06.795Z,2.23
2018-05-06T19:47:34.324Z,2.37
2018-05-06T19:50:01.836Z,2.60
2018-05-06T19:52:29.338Z,2.53
2018-05-06T19:54:57.627Z,2.53
2018-05-06T19:57:25.882Z,2.57
2018-05-06T19:59:53.394Z,2.10
2018-05-06T20:02:21.650Z,2.20
2018-05-06T20:04:49.195Z,2.47
2018-05-06T20:07:16.720Z,2.20
2018-05-06T20:09:44.995Z,2.37
2018-05-06T20:12:13.278Z,2.20
2018-05-06T20:14:40.771Z,2.00
2018-05-06T20:17:09.037Z,1.90
2018-05-06T20:19:36.554Z,3.30
2018-05-06T20:22:04.027Z,1.53
2018-05-06T20:24:31.516Z,1.97
2018-05-06T20:26:59.040Z,1.80
2018-05-06T20:29:27.306Z,1.93
2018-05-06T20:31:54.803Z,2.00
2018-05-06T20:34:23.239Z,2.00
2018-05-06T20:36:50.791Z,2.10
2018-05-06T20:39:18.318Z,1.83
2018-05-06T20:41:46.620Z,1.80
2018-05-06T20:44:15.397Z,2.30
2018-05-06T20:46:42.894Z,2.30
2018-05-06T20:49:10.449Z,2.40
2018-05-06T20:51:37.995Z,1.70
2018-05-06T20:54:05.480Z,1.90
2018-05-06T20:56:33.029Z,1.90
2018-05-06T20:59:00.509Z,2.17
2018-05-06T21:01:28.007Z,2.80
2018-05-06T21:03:56.332Z,1.63
2018-05-06T21:06:23.823Z,2.40
2018-05-06T21:08:51.324Z,2.03
2018-05-06T21:11:18.857Z,2.20
2018-05-06T21:13:46.370Z,2.13
2018-05-06T21:16:14.640Z,2.20
2018-05-06T21:18:42.166Z,1.80
2018-05-06T21:21:09.670Z,1.73
2018-05-06T21:23:37.161Z,2.20
2018-05-06T21:26:04.697Z,1.97
2018-05-06T21:28:32.246Z,1.80
2018-05-06T21:30:59.703Z,1.87
2018-05-06T21:33:28.143Z,2.13
2018-05-06T21:35:55.618Z,2.13
2018-05-06T21:38:23.089Z,2.33
2018-05-06T21:40:50.649Z,2.50
2018-05-06T21:43:18.171Z,2.50
2018-05-06T21:45:46.455Z,2.30
2018-05-06T21:48:14.751Z,2.33
2018-05-06T21:50:43.030Z,2.40
2018-05-06T21:53:11.362Z,1.87
2018-05-06T21:55:38.822Z,2.00
2018-05-06T21:58:06.319Z,1.87
2018-05-06T22:00:33.848Z,2.33
2018-05-06T22:03:01.349Z,2.20
2018-05-06T22:05:28.845Z,2.10
2018-05-06T22:07:56.464Z,2.10
2018-05-06T22:10:23.950Z,1.83
2018-05-06T22:12:51.441Z,2.07
2018-05-06T22:15:18.953Z,1.70
2018-05-06T22:17:46.463Z,2.40
2018-05-06T22:20:13.941Z,1.97
2018-05-06T22:22:41.463Z,2.10
2018-05-06T22:25:09.716Z,1.87
2018-05-06T22:27:37.200Z,2.20
2018-05-06T22:30:04.701Z,2.73
2018-05-06T22:32:32.198Z,2.20
2018-05-06T22:34:59.678Z,2.30
2018-05-06T22:37:27.215Z,2.37
2018-05-06T22:39:55.484Z,1.80
2018-05-06T22:42:22.965Z,2.30
2018-05-06T22:44:51.259Z,2.10
2018-05-06T22:47:19.539Z,2.70
2018-05-06T22:49:47.827Z,2.23
2018-05-06T22:52:16.090Z,2.10
2018-05-06T22:54:43.581Z,2.50
2018-05-06T22:57:11.093Z,2.60
2018-05-06T22:59:38.580Z,2.10
2018-05-06T23:02:06.110Z,2.50
2018-05-06T23:04:34.359Z,2.00
2018-05-06T23:07:01.846Z,2.20
2018-05-06T23:09:29.360Z,2.17
2018-05-06T23:11:56.851Z,2.20
2018-05-06T23:14:24.343Z,2.63
2018-05-06T23:16:51.862Z,1.97
2018-05-06T23:19:19.353Z,2.43
2018-05-06T23:21:46.935Z,2.07
2018-05-06T23:24:14.380Z,2.00
2018-05-06T23:26:41.862Z,1.87
2018-05-06T23:29:09.480Z,2.47
2018-05-06T23:31:36.974Z,2.20
2018-05-06T23:34:05.222Z,1.90
2018-05-06T23:36:32.823Z,2.13
2018-05-06T23:39:01.074Z,2.17
2018-05-06T23:41:28.546Z,2.10
2018-05-06T23:43:56.107Z,2.60
2018-05-06T23:46:23.581Z,2.33
2018-05-06T23:48:51.070Z,2.07
2018-05-06T23:51:18.594Z,2.20
2018-05-06T23:53:46.101Z,2.47
2018-05-06T23:56:13.589Z,2.43
2018-05-06T23:58:41.133Z,2.13
